sensor_id;sensor_type;location;lat;lon;timestamp;temperature;humidity
3086;DHT22;52812;48.960;9.108;2023-07-08T00:00:23;17.60;99.90
3086;DHT22;52812;48.960;9.108;2023-07-08T00:02:50;17.60;99.90
3086;DHT22;52812;48.960;9.108;2023-07-08T00:05:17;17.70;99.90
3086;DHT22;52812;48.960;9.108;2023-07-08T00:07:43;17.60;99.90
3086;DHT22;52812;48.960;9.108;2023-07-08T00:10:22;17.60;99.90
3086;DHT22;52812;48.960;9.108;2023-07-08T00:12:50;17.60;99.90
3086;DHT22;52812;48.960;9.108;2023-07-08T00:15:21;17.60;99.90
3086;DHT22;52812;48.960;9.108;2023-07-08T00:17:47;17.50;99.90
3086;DHT22;52812;48.960;9.108;2023-07-08T00:20:35;17.50;99.90
3086;DHT22;52812;48.960;9.108;2023-07-08T00:22:58;17.30;99.90
3086;DHT22;52812;48.960;9.108;2023-07-08T00:25:27;17.20;99.90
3086;DHT22;52812;48.960;9.108;2023-07-08T00:27:52;17.10;99.90
3086;DHT22;52812;48.960;9.108;2023-07-08T00:32:46;17.00;99.90
3086;DHT22;52812;48.960;9.108;2023-07-08T00:35:11;16.90;99.90
3086;DHT22;52812;48.960;9.108;2023-07-08T00:37:37;16.90;99.90
3086;DHT22;52812;48.960;9.108;2023-07-08T00:40:14;16.90;99.90
3086;DHT22;52812;48.960;9.108;2023-07-08T00:42:42;16.90;99.90
3086;DHT22;52812;48.960;9.108;2023-07-08T00:47:48;16.80;99.90
3086;DHT22;52812;48.960;9.108;2023-07-08T00:50:15;16.70;99.90
3086;DHT22;52812;48.960;9.108;2023-07-08T00:52:42;16.70;99.90
3086;DHT22;52812;48.960;9.108;2023-07-08T00:55:10;16.70;99.90
3086;DHT22;52812;48.960;9.108;2023-07-08T00:57:40;16.70;99.90
3086;DHT22;52812;48.960;9.108;2023-07-08T01:00:11;16.70;99.90
3086;DHT22;52812;48.960;9.108;2023-07-08T01:02:53;16.70;99.90
3086;DHT22;52812;48.960;9.108;2023-07-08T01:05:24;16.70;99.90
3086;DHT22;52812;48.960;9.108;2023-07-08T01:07:55;16.70;99.90
3086;DHT22;52812;48.960;9.108;2023-07-08T01:10:46;16.60;99.90
3086;DHT22;52812;48.960;9.108;2023-07-08T01:13:14;16.50;99.90
3086;DHT22;52812;48.960;9.108;2023-07-08T01:15:45;16.50;99.90
3086;DHT22;52812;48.960;9.108;2023-07-08T01:18:13;16.40;99.90
3086;DHT22;52812;48.960;9.108;2023-07-08T01:20:42;16.40;99.90
3086;DHT22;52812;48.960;9.108;2023-07-08T01:23:09;16.30;99.90
3086;DHT22;52812;48.960;9.108;2023-07-08T01:25:35;16.10;99.90
3086;DHT22;52812;48.960;9.108;2023-07-08T01:28:01;16.20;99.90
3086;DHT22;52812;48.960;9.108;2023-07-08T01:30:28;16.20;99.90
3086;DHT22;52812;48.960;9.108;2023-07-08T01:32:56;16.10;99.90
3086;DHT22;52812;48.960;9.108;2023-07-08T01:35:23;16.00;99.90
3086;DHT22;52812;48.960;9.108;2023-07-08T01:38:00;15.90;99.90
3086;DHT22;52812;48.960;9.108;2023-07-08T01:40:33;15.90;99.90
3086;DHT22;52812;48.960;9.108;2023-07-08T01:43:00;15.80;99.90
3086;DHT22;52812;48.960;9.108;2023-07-08T01:45:31;15.80;99.90
3086;DHT22;52812;48.960;9.108;2023-07-08T01:48:02;15.80;99.90
3086;DHT22;52812;48.960;9.108;2023-07-08T01:50:29;15.90;99.90
3086;DHT22;52812;48.960;9.108;2023-07-08T01:52:58;15.90;99.90
3086;DHT22;52812;48.960;9.108;2023-07-08T01:55:25;15.80;99.90
3086;DHT22;52812;48.960;9.108;2023-07-08T01:57:51;15.80;99.90
3086;DHT22;52812;48.960;9.108;2023-07-08T02:00:19;15.70;99.90
3086;DHT22;52812;48.960;9.108;2023-07-08T02:02:44;15.60;99.90
3086;DHT22;52812;48.960;9.108;2023-07-08T02:05:10;15.60;99.90
3086;DHT22;52812;48.960;9.108;2023-07-08T02:07:36;15.60;99.90
3086;DHT22;52812;48.960;9.108;2023-07-08T02:10:01;15.50;99.90
3086;DHT22;52812;48.960;9.108;2023-07-08T02:12:27;15.50;99.90
3086;DHT22;52812;48.960;9.108;2023-07-08T02:14:52;15.50;99.90
3086;DHT22;52812;48.960;9.108;2023-07-08T02:17:18;15.40;99.90
3086;DHT22;52812;48.960;9.108;2023-07-08T02:19:43;15.40;99.90
3086;DHT22;52812;48.960;9.108;2023-07-08T02:22:09;15.40;99.90
3086;DHT22;52812;48.960;9.108;2023-07-08T02:24:35;15.40;99.90
3086;DHT22;52812;48.960;9.108;2023-07-08T02:27:01;15.40;99.90
3086;DHT22;52812;48.960;9.108;2023-07-08T02:29:26;15.40;99.90
3086;DHT22;52812;48.960;9.108;2023-07-08T02:31:52;15.40;99.90
3086;DHT22;52812;48.960;9.108;2023-07-08T02:34:18;15.30;99.90
3086;DHT22;52812;48.960;9.108;2023-07-08T02:36:44;15.30;99.90
3086;DHT22;52812;48.960;9.108;2023-07-08T02:39:10;15.20;99.90
3086;DHT22;52812;48.960;9.108;2023-07-08T02:41:36;15.20;99.90
3086;DHT22;52812;48.960;9.108;2023-07-08T02:44:02;15.20;99.90
3086;DHT22;52812;48.960;9.108;2023-07-08T02:46:27;15.10;99.90
3086;DHT22;52812;48.960;9.108;2023-07-08T02:48:53;15.00;99.90
3086;DHT22;52812;48.960;9.108;2023-07-08T02:51:18;15.10;99.90
3086;DHT22;52812;48.960;9.108;2023-07-08T02:53:44;15.00;99.90
3086;DHT22;52812;48.960;9.108;2023-07-08T02:56:09;15.00;99.90
3086;DHT22;52812;48.960;9.108;2023-07-08T02:58:36;15.00;99.90
3086;DHT22;52812;48.960;9.108;2023-07-08T03:01:01;14.90;99.90
3086;DHT22;52812;48.960;9.108;2023-07-08T03:03:27;14.80;99.90
3086;DHT22;52812;48.960;9.108;2023-07-08T03:05:58;14.80;99.90
3086;DHT22;52812;48.960;9.108;2023-07-08T03:08:24;14.80;99.90
3086;DHT22;52812;48.960;9.108;2023-07-08T03:10:57;14.80;99.90
3086;DHT22;52812;48.960;9.108;2023-07-08T03:13:23;14.80;99.90
3086;DHT22;52812;48.960;9.108;2023-07-08T03:15:49;14.80;99.90
3086;DHT22;52812;48.960;9.108;2023-07-08T03:18:15;14.80;99.90
3086;DHT22;52812;48.960;9.108;2023-07-08T03:20:41;14.80;99.90
3086;DHT22;52812;48.960;9.108;2023-07-08T03:23:10;14.80;99.90
3086;DHT22;52812;48.960;9.108;2023-07-08T03:25:36;14.70;99.90
3086;DHT22;52812;48.960;9.108;2023-07-08T03:28:03;14.60;99.90
3086;DHT22;52812;48.960;9.108;2023-07-08T03:30:32;14.60;99.90
3086;DHT22;52812;48.960;9.108;2023-07-08T03:32:58;14.60;99.90
3086;DHT22;52812;48.960;9.108;2023-07-08T03:35:23;14.60;99.90
3086;DHT22;52812;48.960;9.108;2023-07-08T03:37:49;14.50;99.90
3086;DHT22;52812;48.960;9.108;2023-07-08T03:40:14;14.50;99.90
3086;DHT22;52812;48.960;9.108;2023-07-08T03:42:40;14.60;99.90
3086;DHT22;52812;48.960;9.108;2023-07-08T03:45:06;14.60;99.90
3086;DHT22;52812;48.960;9.108;2023-07-08T03:47:31;14.60;99.90
3086;DHT22;52812;48.960;9.108;2023-07-08T03:49:57;14.70;99.90
3086;DHT22;52812;48.960;9.108;2023-07-08T03:52:23;14.60;99.90
3086;DHT22;52812;48.960;9.108;2023-07-08T03:54:49;14.60;99.90
3086;DHT22;52812;48.960;9.108;2023-07-08T03:57:14;14.70;99.90
3086;DHT22;52812;48.960;9.108;2023-07-08T03:59:40;14.80;99.90
3086;DHT22;52812;48.960;9.108;2023-07-08T04:02:07;14.90;99.90
3086;DHT22;52812;48.960;9.108;2023-07-08T04:04:33;14.90;99.90
3086;DHT22;52812;48.960;9.108;2023-07-08T04:07:00;15.00;99.90
3086;DHT22;52812;48.960;9.108;2023-07-08T04:09:26;15.10;99.90
3086;DHT22;52812;48.960;9.108;2023-07-08T04:11:51;15.20;99.90
3086;DHT22;52812;48.960;9.108;2023-07-08T04:14:17;15.30;99.90
3086;DHT22;52812;48.960;9.108;2023-07-08T04:16:57;15.30;99.90
3086;DHT22;52812;48.960;9.108;2023-07-08T04:19:24;15.20;99.90
3086;DHT22;52812;48.960;9.108;2023-07-08T04:21:50;15.20;99.90
3086;DHT22;52812;48.960;9.108;2023-07-08T04:24:17;15.50;99.90
3086;DHT22;52812;48.960;9.108;2023-07-08T04:26:44;15.70;99.90
3086;DHT22;52812;48.960;9.108;2023-07-08T04:29:13;15.90;99.90
3086;DHT22;52812;48.960;9.108;2023-07-08T04:31:38;16.10;99.90
3086;DHT22;52812;48.960;9.108;2023-07-08T04:34:04;16.40;99.90
3086;DHT22;52812;48.960;9.108;2023-07-08T04:36:31;16.70;99.90
3086;DHT22;52812;48.960;9.108;2023-07-08T04:38:57;16.90;99.90
3086;DHT22;52812;48.960;9.108;2023-07-08T04:41:24;17.00;99.90
3086;DHT22;52812;48.960;9.108;2023-07-08T04:43:51;17.30;99.90
3086;DHT22;52812;48.960;9.108;2023-07-08T04:48:55;17.70;99.90
3086;DHT22;52812;48.960;9.108;2023-07-08T04:51:21;17.90;99.90
3086;DHT22;52812;48.960;9.108;2023-07-08T04:53:47;17.90;99.90
3086;DHT22;52812;48.960;9.108;2023-07-08T04:56:12;18.00;99.90
3086;DHT22;52812;48.960;9.108;2023-07-08T04:58:38;18.00;99.90
3086;DHT22;52812;48.960;9.108;2023-07-08T05:01:03;18.20;99.90
3086;DHT22;52812;48.960;9.108;2023-07-08T05:03:29;18.30;99.90
3086;DHT22;52812;48.960;9.108;2023-07-08T05:05:54;18.40;99.90
3086;DHT22;52812;48.960;9.108;2023-07-08T05:08:20;18.50;99.90
3086;DHT22;52812;48.960;9.108;2023-07-08T05:10:45;18.40;99.90
3086;DHT22;52812;48.960;9.108;2023-07-08T05:13:11;18.50;99.90
3086;DHT22;52812;48.960;9.108;2023-07-08T05:15:37;18.60;99.90
3086;DHT22;52812;48.960;9.108;2023-07-08T05:18:02;18.70;99.90
3086;DHT22;52812;48.960;9.108;2023-07-08T05:20:28;18.70;99.90
3086;DHT22;52812;48.960;9.108;2023-07-08T05:22:54;18.70;99.90
3086;DHT22;52812;48.960;9.108;2023-07-08T05:25:19;18.70;99.90
3086;DHT22;52812;48.960;9.108;2023-07-08T05:27:47;18.60;99.90
3086;DHT22;52812;48.960;9.108;2023-07-08T05:30:17;18.50;99.90
3086;DHT22;52812;48.960;9.108;2023-07-08T05:32:44;18.50;99.90
3086;DHT22;52812;48.960;9.108;2023-07-08T05:35:09;18.60;99.90
3086;DHT22;52812;48.960;9.108;2023-07-08T05:37:35;18.60;99.90
3086;DHT22;52812;48.960;9.108;2023-07-08T05:40:01;18.70;99.90
3086;DHT22;52812;48.960;9.108;2023-07-08T05:42:29;19.00;99.90
3086;DHT22;52812;48.960;9.108;2023-07-08T05:44:55;19.30;99.90
3086;DHT22;52812;48.960;9.108;2023-07-08T05:47:21;19.50;99.90
3086;DHT22;52812;48.960;9.108;2023-07-08T05:49:47;19.80;99.90
3086;DHT22;52812;48.960;9.108;2023-07-08T05:52:13;19.80;99.90
3086;DHT22;52812;48.960;9.108;2023-07-08T05:54:40;20.00;99.90
3086;DHT22;52812;48.960;9.108;2023-07-08T05:57:09;20.20;99.90
3086;DHT22;52812;48.960;9.108;2023-07-08T05:59:36;20.20;99.90
3086;DHT22;52812;48.960;9.108;2023-07-08T06:02:04;20.20;99.90
3086;DHT22;52812;48.960;9.108;2023-07-08T06:04:30;20.40;99.90
3086;DHT22;52812;48.960;9.108;2023-07-08T06:06:56;20.50;99.90
3086;DHT22;52812;48.960;9.108;2023-07-08T06:09:21;20.60;99.90
3086;DHT22;52812;48.960;9.108;2023-07-08T06:11:47;20.70;99.90
3086;DHT22;52812;48.960;9.108;2023-07-08T06:14:13;20.90;99.90
3086;DHT22;52812;48.960;9.108;2023-07-08T06:16:38;21.40;99.90
3086;DHT22;52812;48.960;9.108;2023-07-08T06:19:04;22.10;99.90
3086;DHT22;52812;48.960;9.108;2023-07-08T06:21:29;23.30;99.90
3086;DHT22;52812;48.960;9.108;2023-07-08T06:23:55;25.00;99.90
3086;DHT22;52812;48.960;9.108;2023-07-08T06:26:20;25.70;99.90
3086;DHT22;52812;48.960;9.108;2023-07-08T06:28:46;26.30;99.90
3086;DHT22;52812;48.960;9.108;2023-07-08T06:31:11;26.60;99.90
3086;DHT22;52812;48.960;9.108;2023-07-08T06:33:37;27.00;99.90
3086;DHT22;52812;48.960;9.108;2023-07-08T06:36:02;27.50;99.90
3086;DHT22;52812;48.960;9.108;2023-07-08T06:38:28;28.20;99.90
3086;DHT22;52812;48.960;9.108;2023-07-08T06:40:54;28.30;99.90
3086;DHT22;52812;48.960;9.108;2023-07-08T06:43:19;28.80;99.90
3086;DHT22;52812;48.960;9.108;2023-07-08T06:45:45;28.30;99.60
3086;DHT22;52812;48.960;9.108;2023-07-08T06:48:10;28.50;99.30
3086;DHT22;52812;48.960;9.108;2023-07-08T06:50:37;28.80;99.90
3086;DHT22;52812;48.960;9.108;2023-07-08T06:53:02;28.90;98.90
3086;DHT22;52812;48.960;9.108;2023-07-08T06:55:28;28.90;98.70
3086;DHT22;52812;48.960;9.108;2023-07-08T06:57:55;29.40;98.10
3086;DHT22;52812;48.960;9.108;2023-07-08T07:00:21;29.60;97.40
3086;DHT22;52812;48.960;9.108;2023-07-08T07:02:46;29.30;95.80
3086;DHT22;52812;48.960;9.108;2023-07-08T07:05:12;29.20;95.90
3086;DHT22;52812;48.960;9.108;2023-07-08T07:07:38;29.30;96.40
3086;DHT22;52812;48.960;9.108;2023-07-08T07:10:03;28.90;96.70
3086;DHT22;52812;48.960;9.108;2023-07-08T07:12:29;29.10;96.20
3086;DHT22;52812;48.960;9.108;2023-07-08T07:14:55;28.80;97.40
3086;DHT22;52812;48.960;9.108;2023-07-08T07:17:22;28.40;98.00
3086;DHT22;52812;48.960;9.108;2023-07-08T07:19:48;28.10;98.20
3086;DHT22;52812;48.960;9.108;2023-07-08T07:22:14;28.00;97.70
3086;DHT22;52812;48.960;9.108;2023-07-08T07:24:40;28.20;98.00
3086;DHT22;52812;48.960;9.108;2023-07-08T07:27:06;28.30;97.30
3086;DHT22;52812;48.960;9.108;2023-07-08T07:29:43;28.20;96.70
3086;DHT22;52812;48.960;9.108;2023-07-08T07:32:10;28.20;96.70
3086;DHT22;52812;48.960;9.108;2023-07-08T07:34:37;28.20;96.80
3086;DHT22;52812;48.960;9.108;2023-07-08T07:37:03;28.50;97.00
3086;DHT22;52812;48.960;9.108;2023-07-08T07:39:29;29.10;96.80
3086;DHT22;52812;48.960;9.108;2023-07-08T07:41:54;29.00;95.40
3086;DHT22;52812;48.960;9.108;2023-07-08T07:44:20;29.10;94.70
3086;DHT22;52812;48.960;9.108;2023-07-08T07:46:46;29.10;94.50
3086;DHT22;52812;48.960;9.108;2023-07-08T07:49:12;29.30;95.00
3086;DHT22;52812;48.960;9.108;2023-07-08T07:51:38;28.70;95.20
3086;DHT22;52812;48.960;9.108;2023-07-08T07:54:03;28.50;96.20
3086;DHT22;52812;48.960;9.108;2023-07-08T07:56:29;28.70;94.70
3086;DHT22;52812;48.960;9.108;2023-07-08T07:58:55;28.60;94.30
3086;DHT22;52812;48.960;9.108;2023-07-08T08:01:20;28.60;94.00
3086;DHT22;52812;48.960;9.108;2023-07-08T08:03:48;29.10;92.50
3086;DHT22;52812;48.960;9.108;2023-07-08T08:06:15;29.70;93.00
3086;DHT22;52812;48.960;9.108;2023-07-08T08:08:43;30.10;93.40
3086;DHT22;52812;48.960;9.108;2023-07-08T08:11:09;30.40;93.20
3086;DHT22;52812;48.960;9.108;2023-07-08T08:13:34;30.30;92.50
3086;DHT22;52812;48.960;9.108;2023-07-08T08:16:00;30.60;92.10
3086;DHT22;52812;48.960;9.108;2023-07-08T08:18:26;31.30;91.70
3086;DHT22;52812;48.960;9.108;2023-07-08T08:20:51;31.80;91.70
3086;DHT22;52812;48.960;9.108;2023-07-08T08:23:17;32.10;90.70
3086;DHT22;52812;48.960;9.108;2023-07-08T08:25:43;31.60;90.00
3086;DHT22;52812;48.960;9.108;2023-07-08T08:28:08;31.70;90.10
3086;DHT22;52812;48.960;9.108;2023-07-08T08:30:34;31.80;90.20
3086;DHT22;52812;48.960;9.108;2023-07-08T08:33:00;32.40;88.60
3086;DHT22;52812;48.960;9.108;2023-07-08T08:35:26;32.80;88.50
3086;DHT22;52812;48.960;9.108;2023-07-08T08:37:52;32.50;86.00
3086;DHT22;52812;48.960;9.108;2023-07-08T08:40:19;32.40;87.50
3086;DHT22;52812;48.960;9.108;2023-07-08T08:42:51;32.70;86.80
3086;DHT22;52812;48.960;9.108;2023-07-08T08:45:19;32.60;88.50
3086;DHT22;52812;48.960;9.108;2023-07-08T08:47:50;32.30;86.90
3086;DHT22;52812;48.960;9.108;2023-07-08T08:50:41;32.20;86.10
3086;DHT22;52812;48.960;9.108;2023-07-08T08:53:11;32.30;87.60
3086;DHT22;52812;48.960;9.108;2023-07-08T08:55:37;31.90;87.50
3086;DHT22;52812;48.960;9.108;2023-07-08T08:58:27;32.10;87.60
3086;DHT22;52812;48.960;9.108;2023-07-08T09:01:08;32.40;87.40
3086;DHT22;52812;48.960;9.108;2023-07-08T09:03:52;32.30;87.60
3086;DHT22;52812;48.960;9.108;2023-07-08T09:06:23;31.90;88.60
3086;DHT22;52812;48.960;9.108;2023-07-08T09:08:50;31.70;87.00
3086;DHT22;52812;48.960;9.108;2023-07-08T09:11:27;31.60;85.80
3086;DHT22;52812;48.960;9.108;2023-07-08T09:19:25;31.60;88.40
3086;DHT22;52812;48.960;9.108;2023-07-08T09:22:16;31.70;87.20
3086;DHT22;52812;48.960;9.108;2023-07-08T09:24:59;31.20;87.00
3086;DHT22;52812;48.960;9.108;2023-07-08T09:27:26;31.20;87.20
3086;DHT22;52812;48.960;9.108;2023-07-08T09:29:52;31.30;86.20
3086;DHT22;52812;48.960;9.108;2023-07-08T09:32:21;31.50;89.70
3086;DHT22;52812;48.960;9.108;2023-07-08T09:39:54;31.50;85.50
3086;DHT22;52812;48.960;9.108;2023-07-08T09:42:21;31.10;85.50
3086;DHT22;52812;48.960;9.108;2023-07-08T09:44:48;31.30;85.30
3086;DHT22;52812;48.960;9.108;2023-07-08T09:47:26;31.40;85.20
3086;DHT22;52812;48.960;9.108;2023-07-08T09:49:57;31.00;84.50
3086;DHT22;52812;48.960;9.108;2023-07-08T09:52:23;30.50;85.80
3086;DHT22;52812;48.960;9.108;2023-07-08T09:54:49;30.40;85.30
3086;DHT22;52812;48.960;9.108;2023-07-08T09:59:55;30.40;85.20
3086;DHT22;52812;48.960;9.108;2023-07-08T10:05:03;30.80;86.30
3086;DHT22;52812;48.960;9.108;2023-07-08T10:07:32;31.10;87.50
3086;DHT22;52812;48.960;9.108;2023-07-08T10:10:01;31.20;86.60
3086;DHT22;52812;48.960;9.108;2023-07-08T10:12:28;31.30;85.00
3086;DHT22;52812;48.960;9.108;2023-07-08T10:15:03;31.20;83.90
3086;DHT22;52812;48.960;9.108;2023-07-08T10:17:32;30.90;84.00
3086;DHT22;52812;48.960;9.108;2023-07-08T10:19:59;31.10;85.60
3086;DHT22;52812;48.960;9.108;2023-07-08T10:22:26;31.10;84.00
3086;DHT22;52812;48.960;9.108;2023-07-08T10:33:51;30.80;86.50
3086;DHT22;52812;48.960;9.108;2023-07-08T10:42:39;31.40;86.40
3086;DHT22;52812;48.960;9.108;2023-07-08T10:55:58;30.40;83.90
3086;DHT22;52812;48.960;9.108;2023-07-08T11:06:14;30.40;83.70
3086;DHT22;52812;48.960;9.108;2023-07-08T11:08:42;30.60;86.50
3086;DHT22;52812;48.960;9.108;2023-07-08T11:11:36;30.70;87.20
3086;DHT22;52812;48.960;9.108;2023-07-08T11:14:35;30.80;85.30
3086;DHT22;52812;48.960;9.108;2023-07-08T11:20:07;30.80;85.30
3086;DHT22;52812;48.960;9.108;2023-07-08T11:22:43;30.70;88.80
3086;DHT22;52812;48.960;9.108;2023-07-08T11:25:17;30.90;86.30
3086;DHT22;52812;48.960;9.108;2023-07-08T11:27:46;30.70;86.50
3086;DHT22;52812;48.960;9.108;2023-07-08T11:30:17;30.80;85.50
3086;DHT22;52812;48.960;9.108;2023-07-08T11:32:47;30.80;85.70
3086;DHT22;52812;48.960;9.108;2023-07-08T11:35:46;31.00;85.30
3086;DHT22;52812;48.960;9.108;2023-07-08T11:38:18;31.20;85.10
3086;DHT22;52812;48.960;9.108;2023-07-08T11:40:58;30.80;84.70
3086;DHT22;52812;48.960;9.108;2023-07-08T11:43:37;30.90;85.40
3086;DHT22;52812;48.960;9.108;2023-07-08T11:46:07;31.00;89.20
3086;DHT22;52812;48.960;9.108;2023-07-08T11:48:41;31.20;88.20
3086;DHT22;52812;48.960;9.108;2023-07-08T11:51:09;31.30;87.00
3086;DHT22;52812;48.960;9.108;2023-07-08T11:53:49;31.30;87.20
3086;DHT22;52812;48.960;9.108;2023-07-08T12:04:00;31.20;84.20
3086;DHT22;52812;48.960;9.108;2023-07-08T12:08:54;30.90;87.20
3086;DHT22;52812;48.960;9.108;2023-07-08T12:11:28;31.30;85.80
3086;DHT22;52812;48.960;9.108;2023-07-08T12:13:59;31.50;85.30
3086;DHT22;52812;48.960;9.108;2023-07-08T12:16:27;31.30;83.20
3086;DHT22;52812;48.960;9.108;2023-07-08T12:18:53;31.10;84.00
3086;DHT22;52812;48.960;9.108;2023-07-08T12:21:22;31.10;85.70
3086;DHT22;52812;48.960;9.108;2023-07-08T12:23:49;31.00;84.40
3086;DHT22;52812;48.960;9.108;2023-07-08T12:26:15;30.90;85.00
3086;DHT22;52812;48.960;9.108;2023-07-08T12:28:42;31.10;85.80
3086;DHT22;52812;48.960;9.108;2023-07-08T12:31:17;31.20;85.10
3086;DHT22;52812;48.960;9.108;2023-07-08T12:33:44;31.00;83.80
3086;DHT22;52812;48.960;9.108;2023-07-08T12:36:12;31.00;83.90
3086;DHT22;52812;48.960;9.108;2023-07-08T12:38:42;30.80;84.00
3086;DHT22;52812;48.960;9.108;2023-07-08T12:41:24;30.90;83.70
3086;DHT22;52812;48.960;9.108;2023-07-08T12:43:51;31.10;85.10
3086;DHT22;52812;48.960;9.108;2023-07-08T12:46:20;31.10;84.50
3086;DHT22;52812;48.960;9.108;2023-07-08T12:48:46;31.10;83.80
3086;DHT22;52812;48.960;9.108;2023-07-08T12:51:20;31.20;84.70
3086;DHT22;52812;48.960;9.108;2023-07-08T12:53:47;31.20;84.10
3086;DHT22;52812;48.960;9.108;2023-07-08T12:56:14;31.20;84.50
3086;DHT22;52812;48.960;9.108;2023-07-08T12:58:45;31.30;84.00
3086;DHT22;52812;48.960;9.108;2023-07-08T13:01:19;31.50;86.40
3086;DHT22;52812;48.960;9.108;2023-07-08T13:03:47;31.70;84.10
3086;DHT22;52812;48.960;9.108;2023-07-08T13:06:17;31.70;82.90
3086;DHT22;52812;48.960;9.108;2023-07-08T13:08:44;31.60;83.50
3086;DHT22;52812;48.960;9.108;2023-07-08T13:11:15;31.50;82.20
3086;DHT22;52812;48.960;9.108;2023-07-08T13:13:49;31.40;81.80
3086;DHT22;52812;48.960;9.108;2023-07-08T13:16:16;31.30;81.10
3086;DHT22;52812;48.960;9.108;2023-07-08T13:18:43;31.00;82.30
3086;DHT22;52812;48.960;9.108;2023-07-08T13:21:16;31.10;82.20
3086;DHT22;52812;48.960;9.108;2023-07-08T13:23:42;31.30;84.30
3086;DHT22;52812;48.960;9.108;2023-07-08T13:28:39;31.40;82.10
3086;DHT22;52812;48.960;9.108;2023-07-08T13:31:25;31.40;81.90
3086;DHT22;52812;48.960;9.108;2023-07-08T13:33:57;31.20;81.20
3086;DHT22;52812;48.960;9.108;2023-07-08T13:36:37;31.20;81.90
3086;DHT22;52812;48.960;9.108;2023-07-08T13:39:09;31.20;82.60
3086;DHT22;52812;48.960;9.108;2023-07-08T13:41:35;31.10;80.80
3086;DHT22;52812;48.960;9.108;2023-07-08T13:44:07;31.00;84.60
3086;DHT22;52812;48.960;9.108;2023-07-08T13:46:38;31.30;83.90
3086;DHT22;52812;48.960;9.108;2023-07-08T13:52:13;31.20;82.60
3086;DHT22;52812;48.960;9.108;2023-07-08T13:57:20;31.00;81.20
3086;DHT22;52812;48.960;9.108;2023-07-08T13:59:46;31.30;82.30
3086;DHT22;52812;48.960;9.108;2023-07-08T14:02:21;31.30;81.70
3086;DHT22;52812;48.960;9.108;2023-07-08T14:04:48;31.30;81.80
3086;DHT22;52812;48.960;9.108;2023-07-08T14:07:17;31.40;81.50
3086;DHT22;52812;48.960;9.108;2023-07-08T14:09:43;31.40;82.10
3086;DHT22;52812;48.960;9.108;2023-07-08T14:12:09;31.30;81.60
3086;DHT22;52812;48.960;9.108;2023-07-08T14:14:35;31.20;81.40
3086;DHT22;52812;48.960;9.108;2023-07-08T14:17:01;31.20;81.80
3086;DHT22;52812;48.960;9.108;2023-07-08T14:19:29;31.40;81.80
3086;DHT22;52812;48.960;9.108;2023-07-08T14:25:07;31.80;83.10
3086;DHT22;52812;48.960;9.108;2023-07-08T14:27:33;32.00;81.30
3086;DHT22;52812;48.960;9.108;2023-07-08T14:29:58;32.10;84.40
3086;DHT22;52812;48.960;9.108;2023-07-08T14:32:26;32.10;81.20
3086;DHT22;52812;48.960;9.108;2023-07-08T14:34:56;32.00;81.40
3086;DHT22;52812;48.960;9.108;2023-07-08T14:37:22;32.10;81.90
3086;DHT22;52812;48.960;9.108;2023-07-08T14:39:48;32.10;82.90
3086;DHT22;52812;48.960;9.108;2023-07-08T14:42:16;32.40;82.10
3086;DHT22;52812;48.960;9.108;2023-07-08T14:44:47;32.50;81.00
3086;DHT22;52812;48.960;9.108;2023-07-08T14:47:17;32.30;81.90
3086;DHT22;52812;48.960;9.108;2023-07-08T14:49:43;32.20;81.00
3086;DHT22;52812;48.960;9.108;2023-07-08T14:52:09;32.20;80.60
3086;DHT22;52812;48.960;9.108;2023-07-08T14:54:34;32.20;80.80
3086;DHT22;52812;48.960;9.108;2023-07-08T14:57:01;32.20;81.40
3086;DHT22;52812;48.960;9.108;2023-07-08T14:59:30;32.20;81.00
3086;DHT22;52812;48.960;9.108;2023-07-08T15:01:57;32.30;81.00
3086;DHT22;52812;48.960;9.108;2023-07-08T15:04:24;32.30;80.00
3086;DHT22;52812;48.960;9.108;2023-07-08T15:06:50;32.40;79.80
3086;DHT22;52812;48.960;9.108;2023-07-08T15:09:17;32.40;79.90
3086;DHT22;52812;48.960;9.108;2023-07-08T15:11:44;32.30;78.90
3086;DHT22;52812;48.960;9.108;2023-07-08T15:14:19;32.20;78.60
3086;DHT22;52812;48.960;9.108;2023-07-08T15:16:45;32.20;78.90
3086;DHT22;52812;48.960;9.108;2023-07-08T15:19:12;32.10;78.80
3086;DHT22;52812;48.960;9.108;2023-07-08T15:21:38;32.10;79.20
3086;DHT22;52812;48.960;9.108;2023-07-08T15:24:08;32.10;79.20
3086;DHT22;52812;48.960;9.108;2023-07-08T15:26:34;32.00;79.10
3086;DHT22;52812;48.960;9.108;2023-07-08T15:28:59;31.90;79.10
3086;DHT22;52812;48.960;9.108;2023-07-08T15:31:28;31.90;79.50
3086;DHT22;52812;48.960;9.108;2023-07-08T15:33:54;31.90;79.30
3086;DHT22;52812;48.960;9.108;2023-07-08T15:36:20;31.90;78.80
3086;DHT22;52812;48.960;9.108;2023-07-08T15:38:45;31.80;80.50
3086;DHT22;52812;48.960;9.108;2023-07-08T15:41:31;31.80;80.20
3086;DHT22;52812;48.960;9.108;2023-07-08T15:43:58;31.80;78.80
3086;DHT22;52812;48.960;9.108;2023-07-08T15:46:33;31.70;79.10
3086;DHT22;52812;48.960;9.108;2023-07-08T15:49:00;31.70;77.90
3086;DHT22;52812;48.960;9.108;2023-07-08T15:51:26;31.60;78.80
3086;DHT22;52812;48.960;9.108;2023-07-08T15:53:52;31.60;78.80
3086;DHT22;52812;48.960;9.108;2023-07-08T15:56:19;31.60;78.80
3086;DHT22;52812;48.960;9.108;2023-07-08T15:58:46;31.60;78.80
3086;DHT22;52812;48.960;9.108;2023-07-08T16:01:18;31.50;79.70
3086;DHT22;52812;48.960;9.108;2023-07-08T16:03:45;31.50;79.10
3086;DHT22;52812;48.960;9.108;2023-07-08T16:06:11;31.50;79.80
3086;DHT22;52812;48.960;9.108;2023-07-08T16:08:37;31.40;80.50
3086;DHT22;52812;48.960;9.108;2023-07-08T16:11:09;31.40;78.80
3086;DHT22;52812;48.960;9.108;2023-07-08T16:13:37;31.40;78.90
3086;DHT22;52812;48.960;9.108;2023-07-08T16:16:04;31.40;79.30
3086;DHT22;52812;48.960;9.108;2023-07-08T16:18:30;31.50;79.00
3086;DHT22;52812;48.960;9.108;2023-07-08T16:20:55;31.50;79.40
3086;DHT22;52812;48.960;9.108;2023-07-08T16:23:21;31.50;78.40
3086;DHT22;52812;48.960;9.108;2023-07-08T16:25:50;31.60;78.90
3086;DHT22;52812;48.960;9.108;2023-07-08T16:28:26;31.60;77.80
3086;DHT22;52812;48.960;9.108;2023-07-08T16:30:53;31.60;78.30
3086;DHT22;52812;48.960;9.108;2023-07-08T16:33:19;31.50;78.50
3086;DHT22;52812;48.960;9.108;2023-07-08T16:35:48;31.40;78.30
3086;DHT22;52812;48.960;9.108;2023-07-08T16:38:14;31.40;78.40
3086;DHT22;52812;48.960;9.108;2023-07-08T16:40:40;31.40;79.30
3086;DHT22;52812;48.960;9.108;2023-07-08T16:43:37;31.40;78.40
3086;DHT22;52812;48.960;9.108;2023-07-08T16:46:02;31.40;77.90
3086;DHT22;52812;48.960;9.108;2023-07-08T16:48:27;31.40;78.00
3086;DHT22;52812;48.960;9.108;2023-07-08T16:50:53;31.30;77.60
3086;DHT22;52812;48.960;9.108;2023-07-08T16:53:19;31.40;78.40
3086;DHT22;52812;48.960;9.108;2023-07-08T16:55:44;31.30;77.70
3086;DHT22;52812;48.960;9.108;2023-07-08T16:58:11;31.40;77.60
3086;DHT22;52812;48.960;9.108;2023-07-08T17:00:41;31.30;78.30
3086;DHT22;52812;48.960;9.108;2023-07-08T17:03:09;31.30;77.70
3086;DHT22;52812;48.960;9.108;2023-07-08T17:05:36;31.30;78.50
3086;DHT22;52812;48.960;9.108;2023-07-08T17:08:02;31.20;77.80
3086;DHT22;52812;48.960;9.108;2023-07-08T17:10:28;31.20;77.80
3086;DHT22;52812;48.960;9.108;2023-07-08T17:12:54;31.20;78.20